Time;durP1;ratioP1;P1;durP2;ratioP2;P2;SDS_P1;SDS_P2;PMS_P1;PMS_P2;Temp;Humidity;BMP_temperature;BMP_pressure;BME280_temperature;BME280_humidity;BME280_pressure;Samples;Min_cycle;Max_cycle;Signal;HPM_P1;HPM_P2
2021/09/09 00:00:54;;;;;;;;;;;16.70;91.40;;;;;;5073239;28;20389;-70
2021/09/09 00:03:21;;;;;;;;;;;16.80;90.30;;;;;;5073116;28;19943;-70
2021/09/09 00:05:48;;;;;;;;;;;16.90;88.20;;;;;;5072918;28;19950;-70
2021/09/09 00:08:14;;;;;;;;;;;17.10;86.70;;;;;;5072884;28;20314;-69
2021/09/09 00:10:41;;;;;;;;;;;17.10;85.40;;;;;;5072884;28;19913;-69
2021/09/09 00:13:08;;;;;;;;;;;17.20;81.50;;;;;;5072701;28;20407;-69
2021/09/09 00:15:34;;;;;;;;;;;17.30;78.70;;;;;;5072826;28;19909;-69
2021/09/09 00:18:01;;;;;;;;;;;17.30;75.00;;;;;;5072966;28;19913;-69
2021/09/09 00:20:27;;;;;;;;;;;17.30;74.30;;;;;;5072966;28;19908;-69
2021/09/09 00:22:54;;;;;;;;;;;17.40;74.50;;;;;;5072747;28;19962;-68
2021/09/09 00:25:21;;;;;;;;;;;17.40;74.20;;;;;;5072835;28;19909;-69
2021/09/09 00:27:47;;;;;;;;;;;17.50;75.90;;;;;;5072422;28;19999;-70
2021/09/09 00:30:14;;;;;;;;;;;17.70;75.70;;;;;;5072758;28;20765;-69
2021/09/09 00:32:41;;;;;;;;;;;17.70;74.80;;;;;;5072592;28;19909;-69
2021/09/09 00:35:08;;;;;;;;;;;17.80;74.50;;;;;;5072591;28;19912;-69
2021/09/09 00:37:34;;;;;;;;;;;17.90;74.30;;;;;;5072158;28;19954;-69
2021/09/09 00:40:01;;;;;;;;;;;18.00;73.50;;;;;;5072337;28;19908;-69
2021/09/09 00:42:28;;;;;;;;;;;18.00;73.20;;;;;;5072420;28;20279;-69
2021/09/09 00:44:54;;;;;;;;;;;18.10;72.40;;;;;;5072707;28;19908;-69
2021/09/09 00:47:21;;;;;;;;;;;18.10;71.20;;;;;;5072160;28;20395;-69
2021/09/09 00:49:48;;;;;;;;;;;18.20;68.90;;;;;;5072062;28;19958;-69
2021/09/09 00:52:15;;;;;;;;;;;18.30;69.10;;;;;;5072394;28;19909;-69
2021/09/09 00:54:44;;;;;;;;;;;18.40;69.70;;;;;;5072485;28;19970;-69
2021/09/09 00:57:10;;;;;;;;;;;18.50;68.20;;;;;;5072172;28;19940;-69
2021/09/09 00:59:37;;;;;;;;;;;18.60;69.40;;;;;;5072122;28;19915;-69
2021/09/09 01:02:04;;;;;;;;;;;18.70;70.20;;;;;;5071850;28;19915;-69
2021/09/09 01:04:31;;;;;;;;;;;18.70;70.90;;;;;;5072440;28;20418;-69
2021/09/09 01:06:59;;;;;;;;;;;18.80;70.80;;;;;;5072354;28;19909;-68
2021/09/09 01:09:25;;;;;;;;;;;19.00;71.60;;;;;;5072173;28;19920;-69
2021/09/09 01:11:52;;;;;;;;;;;19.10;70.70;;;;;;5072057;28;19912;-69
2021/09/09 01:14:19;;;;;;;;;;;19.00;70.00;;;;;;5072072;28;19916;-69
2021/09/09 01:16:46;;;;;;;;;;;19.10;71.40;;;;;;5072163;28;19999;-69
2021/09/09 01:19:13;;;;;;;;;;;19.10;72.30;;;;;;5072162;28;20442;-69
2021/09/09 01:21:41;;;;;;;;;;;19.10;71.40;;;;;;5071915;28;20019;-69
2021/09/09 01:24:20;;;;;;;;;;;19.10;72.00;;;;;;5071845;28;19916;-69
2021/09/09 01:26:50;;;;;;;;;;;19.20;73.30;;;;;;5071882;28;19931;-69
2021/09/09 01:29:16;;;;;;;;;;;19.40;69.70;;;;;;5071976;28;20038;-69
2021/09/09 01:31:43;;;;;;;;;;;19.80;69.30;;;;;;5071840;28;19915;-69
2021/09/09 01:34:10;;;;;;;;;;;20.00;63.10;;;;;;5071799;28;19917;-69
2021/09/09 01:36:37;;;;;;;;;;;20.10;60.70;;;;;;5071882;28;19909;-69
2021/09/09 01:39:03;;;;;;;;;;;20.10;58.80;;;;;;5072071;28;19909;-69
2021/09/09 01:41:30;;;;;;;;;;;20.20;58.60;;;;;;5071559;28;19991;-69
2021/09/09 01:43:57;;;;;;;;;;;20.10;59.30;;;;;;5071915;28;20321;-68
2021/09/09 01:46:23;;;;;;;;;;;20.10;61.80;;;;;;5071596;28;19992;-69
2021/09/09 01:48:50;;;;;;;;;;;20.20;59.90;;;;;;5071712;28;20329;-69
2021/09/09 01:51:17;;;;;;;;;;;20.20;61.30;;;;;;5071909;28;20003;-68
2021/09/09 01:53:43;;;;;;;;;;;20.30;57.70;;;;;;5071165;28;19917;-69
2021/09/09 01:56:10;;;;;;;;;;;20.50;56.90;;;;;;5071776;28;19981;-69
2021/09/09 01:58:37;;;;;;;;;;;20.50;56.90;;;;;;5071725;28;20334;-69
2021/09/09 02:01:03;;;;;;;;;;;20.50;59.60;;;;;;5071827;28;19908;-68
2021/09/09 02:03:30;;;;;;;;;;;20.50;58.00;;;;;;5071593;28;19916;-68
2021/09/09 02:05:56;;;;;;;;;;;20.60;56.50;;;;;;5071447;28;19909;-68
2021/09/09 02:08:23;;;;;;;;;;;20.70;57.90;;;;;;5071651;28;19916;-69
2021/09/09 02:10:50;;;;;;;;;;;20.80;55.60;;;;;;5071619;28;19908;-69
2021/09/09 02:13:16;;;;;;;;;;;20.80;58.80;;;;;;5071997;28;19936;-69
2021/09/09 02:15:43;;;;;;;;;;;20.90;56.80;;;;;;5074851;28;19920;-69
2021/09/09 02:18:10;;;;;;;;;;;21.00;55.40;;;;;;5075251;28;19915;-68
2021/09/09 02:20:37;;;;;;;;;;;21.10;54.30;;;;;;5075148;28;20310;-68
2021/09/09 02:23:04;;;;;;;;;;;21.20;54.60;;;;;;5075040;28;20404;-69
2021/09/09 02:25:30;;;;;;;;;;;21.30;53.90;;;;;;5074752;28;19956;-68
2021/09/09 02:27:57;;;;;;;;;;;21.20;54.00;;;;;;5074905;28;19929;-68
2021/09/09 02:30:26;;;;;;;;;;;21.30;53.50;;;;;;5074998;28;19909;-68
2021/09/09 02:32:53;;;;;;;;;;;21.20;50.90;;;;;;5075043;28;20268;-69
2021/09/09 02:35:20;;;;;;;;;;;21.40;50.30;;;;;;5074896;28;19919;-68
2021/09/09 02:37:46;;;;;;;;;;;21.50;47.70;;;;;;5074790;28;20355;-68
2021/09/09 02:40:14;;;;;;;;;;;21.60;46.20;;;;;;5074955;28;20378;-68
2021/09/09 02:42:41;;;;;;;;;;;21.80;47.20;;;;;;5074548;28;19909;-69
2021/09/09 02:45:09;;;;;;;;;;;21.90;46.50;;;;;;5074765;28;19912;-70
2021/09/09 02:47:35;;;;;;;;;;;22.10;44.70;;;;;;5074258;28;19921;-69
2021/09/09 02:50:03;;;;;;;;;;;22.30;43.60;;;;;;5074624;28;20390;-69
2021/09/09 02:52:29;;;;;;;;;;;22.40;44.30;;;;;;5074692;28;19932;-69
2021/09/09 02:54:57;;;;;;;;;;;22.20;44.60;;;;;;5074525;28;19920;-68
2021/09/09 02:57:24;;;;;;;;;;;22.50;43.70;;;;;;5074386;28;19908;-68
2021/09/09 02:59:51;;;;;;;;;;;22.60;44.00;;;;;;5074514;28;19975;-68
2021/09/09 03:02:18;;;;;;;;;;;22.40;44.00;;;;;;5074529;28;19914;-68
2021/09/09 03:04:45;;;;;;;;;;;22.30;44.80;;;;;;5074576;28;19909;-68
2021/09/09 03:07:12;;;;;;;;;;;22.60;44.50;;;;;;5074354;28;19943;-67
2021/09/09 03:09:38;;;;;;;;;;;22.50;45.10;;;;;;5074048;28;19909;-69
2021/09/09 03:12:05;;;;;;;;;;;22.50;45.50;;;;;;5074116;28;19916;-68
2021/09/09 03:14:32;;;;;;;;;;;22.40;46.50;;;;;;5074115;28;20322;-68
2021/09/09 03:16:58;;;;;;;;;;;22.20;46.60;;;;;;5074180;28;19908;-68
2021/09/09 03:19:25;;;;;;;;;;;22.20;47.70;;;;;;5074171;28;19954;-69
2021/09/09 03:21:52;;;;;;;;;;;22.30;46.60;;;;;;5073946;28;19908;-69
2021/09/09 03:24:19;;;;;;;;;;;22.40;46.90;;;;;;5074020;28;20011;-69
2021/09/09 03:26:46;;;;;;;;;;;22.40;48.20;;;;;;5073352;28;19908;-69
2021/09/09 03:29:12;;;;;;;;;;;22.50;48.20;;;;;;5073774;28;19958;-69
2021/09/09 03:31:39;;;;;;;;;;;22.40;47.20;;;;;;5073773;28;19972;-69
2021/09/09 03:34:05;;;;;;;;;;;22.30;48.90;;;;;;5073799;28;19916;-69
2021/09/09 03:36:32;;;;;;;;;;;22.40;48.80;;;;;;5073774;28;20111;-69
2021/09/09 03:38:59;;;;;;;;;;;22.60;49.60;;;;;;5073810;28;19916;-68
2021/09/09 03:41:25;;;;;;;;;;;22.60;49.70;;;;;;5073623;28;19909;-68
2021/09/09 03:43:52;;;;;;;;;;;22.40;48.90;;;;;;5073459;28;19915;-68
2021/09/09 03:46:19;;;;;;;;;;;22.40;48.60;;;;;;5073394;28;19920;-68
2021/09/09 03:48:45;;;;;;;;;;;22.40;49.00;;;;;;5073356;28;19909;-68
2021/09/09 03:51:12;;;;;;;;;;;22.40;48.80;;;;;;5073269;28;19943;-68
2021/09/09 03:53:39;;;;;;;;;;;22.50;49.30;;;;;;5072923;28;19969;-69
2021/09/09 03:56:05;;;;;;;;;;;22.60;48.40;;;;;;5073092;28;19934;-68
2021/09/09 03:58:32;;;;;;;;;;;22.50;49.10;;;;;;5073444;28;19915;-69
2021/09/09 04:00:58;;;;;;;;;;;22.60;49.10;;;;;;5073390;28;19909;-69
2021/09/09 04:03:25;;;;;;;;;;;22.60;49.60;;;;;;5073141;28;20003;-69
2021/09/09 04:05:52;;;;;;;;;;;22.50;49.90;;;;;;5072948;28;19916;-69
2021/09/09 04:08:18;;;;;;;;;;;22.40;50.50;;;;;;5073269;28;19908;-69
2021/09/09 04:10:45;;;;;;;;;;;22.60;50.30;;;;;;5073022;28;20351;-69
2021/09/09 04:13:12;;;;;;;;;;;22.70;50.60;;;;;;5072955;28;19939;-68
2021/09/09 04:15:39;;;;;;;;;;;22.60;51.20;;;;;;5072829;28;19947;-69
2021/09/09 04:18:06;;;;;;;;;;;22.70;51.30;;;;;;5072772;28;19908;-69
2021/09/09 04:20:32;;;;;;;;;;;22.60;52.10;;;;;;5072817;28;19912;-69
2021/09/09 04:22:59;;;;;;;;;;;22.60;51.70;;;;;;5072683;28;19999;-68
2021/09/09 04:25:26;;;;;;;;;;;22.80;51.30;;;;;;5072751;28;20355;-68
2021/09/09 04:27:52;;;;;;;;;;;23.10;50.70;;;;;;5072520;28;19920;-69
2021/09/09 04:30:19;;;;;;;;;;;23.50;50.10;;;;;;5072837;28;19908;-69
2021/09/09 04:32:46;;;;;;;;;;;23.40;50.50;;;;;;5072558;28;20267;-68
2021/09/09 04:35:13;;;;;;;;;;;23.50;51.40;;;;;;5072565;28;19925;-68
2021/09/09 04:37:39;;;;;;;;;;;23.60;51.50;;;;;;5071702;28;20002;-69
2021/09/09 04:40:07;;;;;;;;;;;23.70;52.10;;;;;;5072581;28;19909;-69
2021/09/09 04:42:33;;;;;;;;;;;23.70;51.50;;;;;;5072411;28;19915;-69
2021/09/09 04:45:00;;;;;;;;;;;24.00;52.30;;;;;;5072543;28;20466;-69
2021/09/09 04:47:27;;;;;;;;;;;24.10;50.90;;;;;;5072250;28;20379;-68
2021/09/09 04:49:53;;;;;;;;;;;24.20;51.60;;;;;;5104670;28;20266;-69
2021/09/09 04:52:20;;;;;;;;;;;24.30;50.20;;;;;;5072441;28;20003;-69
2021/09/09 04:54:46;;;;;;;;;;;24.30;50.70;;;;;;5072367;28;19916;-69
2021/09/09 04:57:13;;;;;;;;;;;24.00;51.40;;;;;;5072129;28;19958;-69
2021/09/09 04:59:40;;;;;;;;;;;23.90;51.20;;;;;;5072222;28;19909;-69
2021/09/09 05:02:07;;;;;;;;;;;24.00;51.30;;;;;;5072139;28;19916;-69
2021/09/09 05:04:33;;;;;;;;;;;24.00;51.30;;;;;;5072206;28;19916;-69
2021/09/09 05:07:00;;;;;;;;;;;24.00;51.20;;;;;;5072363;28;19915;-69
2021/09/09 05:09:26;;;;;;;;;;;24.00;51.10;;;;;;5072283;28;19909;-69
2021/09/09 05:11:53;;;;;;;;;;;24.00;50.30;;;;;;5072005;28;20288;-68
2021/09/09 05:14:20;;;;;;;;;;;24.20;50.00;;;;;;5072207;28;20038;-69
2021/09/09 05:16:46;;;;;;;;;;;24.10;49.80;;;;;;5071998;28;19950;-69
2021/09/09 05:19:13;;;;;;;;;;;24.20;48.50;;;;;;5072272;28;19988;-68
2021/09/09 05:21:40;;;;;;;;;;;23.90;48.80;;;;;;5071889;28;19943;-69
2021/09/09 05:24:06;;;;;;;;;;;23.70;48.90;;;;;;5072179;28;20356;-69
2021/09/09 05:26:33;;;;;;;;;;;23.70;47.70;;;;;;5071957;28;20353;-69
2021/09/09 05:28:59;;;;;;;;;;;23.50;45.30;;;;;;5072216;28;19908;-69
2021/09/09 05:31:26;;;;;;;;;;;23.50;43.90;;;;;;5072069;28;20342;-68
2021/09/09 05:33:53;;;;;;;;;;;23.40;43.70;;;;;;5071680;28;19947;-68
2021/09/09 05:36:19;;;;;;;;;;;23.30;43.00;;;;;;5072020;28;19909;-69
2021/09/09 05:38:46;;;;;;;;;;;23.40;43.50;;;;;;5071977;28;20426;-69
2021/09/09 05:41:13;;;;;;;;;;;23.30;43.60;;;;;;5071830;28;20409;-70
2021/09/09 05:43:39;;;;;;;;;;;23.30;42.80;;;;;;5071651;28;19909;-69
2021/09/09 05:46:06;;;;;;;;;;;23.70;40.90;;;;;;5071575;28;19920;-69
2021/09/09 05:48:33;;;;;;;;;;;23.80;43.10;;;;;;5071853;28;19920;-69
2021/09/09 05:50:59;;;;;;;;;;;23.50;43.50;;;;;;5075811;28;19952;-69
2021/09/09 05:53:26;;;;;;;;;;;23.30;43.40;;;;;;5075527;28;20350;-69
2021/09/09 05:55:53;;;;;;;;;;;23.30;42.60;;;;;;5075329;28;20359;-69
2021/09/09 05:58:19;;;;;;;;;;;23.10;42.20;;;;;;5075717;28;20065;-69
2021/09/09 06:00:46;;;;;;;;;;;23.20;43.20;;;;;;5075577;28;20401;-69
2021/09/09 06:03:13;;;;;;;;;;;22.90;43.50;;;;;;5075684;28;19919;-69
2021/09/09 06:05:40;;;;;;;;;;;22.80;43.50;;;;;;5075437;28;20351;-69
2021/09/09 06:08:07;;;;;;;;;;;23.20;43.60;;;;;;5075492;28;19995;-69
2021/09/09 06:10:34;;;;;;;;;;;23.10;43.20;;;;;;5075299;28;20315;-69
2021/09/09 06:13:00;;;;;;;;;;;23.10;45.20;;;;;;5075231;28;20278;-69
2021/09/09 06:15:27;;;;;;;;;;;22.90;44.60;;;;;;5075212;28;20354;-69
2021/09/09 06:17:54;;;;;;;;;;;22.70;46.20;;;;;;5075272;28;20381;-69
2021/09/09 06:20:20;;;;;;;;;;;22.50;45.00;;;;;;5075147;28;20359;-68
2021/09/09 06:22:47;;;;;;;;;;;22.40;46.10;;;;;;5075185;28;19999;-69
2021/09/09 06:25:14;;;;;;;;;;;22.40;46.80;;;;;;5074981;28;20347;-69
2021/09/09 06:27:40;;;;;;;;;;;22.30;47.30;;;;;;5074791;28;19909;-69
2021/09/09 06:30:07;;;;;;;;;;;22.40;47.30;;;;;;5074969;28;19915;-69
2021/09/09 06:32:34;;;;;;;;;;;22.70;47.00;;;;;;5075295;28;20333;-69
2021/09/09 06:35:01;;;;;;;;;;;22.70;47.10;;;;;;5074966;28;19925;-69
2021/09/09 06:37:27;;;;;;;;;;;22.50;46.60;;;;;;5075114;28;19912;-69
2021/09/09 06:39:54;;;;;;;;;;;22.40;47.60;;;;;;5074498;28;19944;-69
2021/09/09 06:42:22;;;;;;;;;;;22.30;47.40;;;;;;5074742;28;19908;-69
2021/09/09 06:44:48;;;;;;;;;;;22.30;48.50;;;;;;5074693;28;20224;-69
2021/09/09 06:47:15;;;;;;;;;;;22.70;47.00;;;;;;5074587;28;19921;-69
2021/09/09 06:49:42;;;;;;;;;;;22.60;46.70;;;;;;5074461;28;19931;-69
2021/09/09 06:52:08;;;;;;;;;;;22.50;47.90;;;;;;5072375;28;19909;-69
2021/09/09 06:54:35;;;;;;;;;;;22.40;47.40;;;;;;5072250;28;19920;-69
2021/09/09 06:57:02;;;;;;;;;;;22.40;47.20;;;;;;5072610;28;19955;-69
2021/09/09 06:59:28;;;;;;;;;;;22.40;47.30;;;;;;5071941;28;19909;-69
2021/09/09 07:01:55;;;;;;;;;;;22.20;47.20;;;;;;5071891;28;19946;-69
2021/09/09 07:04:22;;;;;;;;;;;22.10;48.70;;;;;;5071995;28;19912;-70
2021/09/09 07:06:48;;;;;;;;;;;22.00;47.80;;;;;;5072342;28;19912;-69
2021/09/09 07:09:15;;;;;;;;;;;21.90;48.30;;;;;;5072278;28;19909;-70
2021/09/09 07:11:41;;;;;;;;;;;22.00;49.00;;;;;;5071837;28;20267;-69
2021/09/09 07:14:08;;;;;;;;;;;22.20;48.90;;;;;;5071931;28;19969;-69
2021/09/09 07:16:35;;;;;;;;;;;22.30;48.20;;;;;;5071280;28;19995;-69
2021/09/09 07:19:01;;;;;;;;;;;22.50;48.00;;;;;;5072003;28;19944;-69
2021/09/09 07:21:29;;;;;;;;;;;22.20;51.40;;;;;;5071958;28;19919;-69
2021/09/09 07:23:55;;;;;;;;;;;22.20;55.30;;;;;;5071808;28;19915;-69
2021/09/09 07:26:22;;;;;;;;;;;22.00;51.50;;;;;;5071606;28;20061;-69
2021/09/09 07:28:49;;;;;;;;;;;22.00;52.20;;;;;;5071490;28;20073;-69
2021/09/09 07:31:15;;;;;;;;;;;21.70;53.20;;;;;;5071511;28;19915;-68
2021/09/09 07:33:42;;;;;;;;;;;21.70;54.00;;;;;;5071159;28;19923;-70
2021/09/09 07:36:09;;;;;;;;;;;21.50;51.50;;;;;;5071835;28;20260;-69
2021/09/09 07:38:35;;;;;;;;;;;21.40;55.90;;;;;;5071553;28;19991;-69
2021/09/09 07:41:03;;;;;;;;;;;21.40;51.30;;;;;;5071044;28;20287;-69
2021/09/09 07:43:30;;;;;;;;;;;21.30;52.00;;;;;;5071195;28;20036;-69
2021/09/09 07:45:56;;;;;;;;;;;21.20;53.30;;;;;;5071225;28;19968;-69
2021/09/09 07:48:23;;;;;;;;;;;21.10;53.80;;;;;;5070926;28;20260;-69
2021/09/09 07:50:50;;;;;;;;;;;21.20;51.80;;;;;;5071184;28;19908;-69
2021/09/09 07:53:17;;;;;;;;;;;21.10;52.20;;;;;;5071330;28;20285;-69
2021/09/09 07:55:43;;;;;;;;;;;21.10;51.70;;;;;;5070863;28;19939;-69
2021/09/09 07:58:10;;;;;;;;;;;21.00;52.30;;;;;;5071404;28;20649;-69
2021/09/09 08:00:37;;;;;;;;;;;21.00;53.00;;;;;;5071169;28;20321;-69
2021/09/09 08:03:03;;;;;;;;;;;21.00;50.90;;;;;;5070363;28;19920;-69
2021/09/09 08:05:30;;;;;;;;;;;20.90;51.00;;;;;;5070701;28;19962;-69
2021/09/09 08:07:56;;;;;;;;;;;20.90;51.90;;;;;;5070884;28;19908;-69
2021/09/09 08:10:23;;;;;;;;;;;20.80;52.10;;;;;;5071064;28;19954;-69
2021/09/09 08:12:50;;;;;;;;;;;20.80;51.10;;;;;;5103325;28;20269;-69
2021/09/09 08:15:17;;;;;;;;;;;20.90;51.80;;;;;;5071125;28;19916;-69
2021/09/09 08:17:43;;;;;;;;;;;20.80;50.50;;;;;;5069774;28;20292;-69
2021/09/09 08:20:11;;;;;;;;;;;20.80;51.30;;;;;;5070625;28;19913;-69
2021/09/09 08:22:38;;;;;;;;;;;20.80;51.90;;;;;;5070798;28;19955;-69
2021/09/09 08:25:05;;;;;;;;;;;20.70;50.30;;;;;;5070704;28;19916;-69
2021/09/09 08:27:31;;;;;;;;;;;20.70;51.70;;;;;;5070618;28;20614;-69
2021/09/09 08:29:58;;;;;;;;;;;20.70;50.00;;;;;;5070821;28;20445;-69
2021/09/09 08:32:25;;;;;;;;;;;20.60;49.90;;;;;;5070793;28;20476;-69
2021/09/09 08:34:55;;;;;;;;;;;20.50;50.40;;;;;;5070548;28;19920;-69
2021/09/09 08:37:23;;;;;;;;;;;20.60;50.30;;;;;;5071284;28;19916;-69
2021/09/09 08:39:49;;;;;;;;;;;20.50;49.60;;;;;;5069489;28;19909;-69
2021/09/09 08:42:17;;;;;;;;;;;20.50;51.00;;;;;;5071234;28;19970;-69
2021/09/09 08:44:43;;;;;;;;;;;20.60;49.90;;;;;;5070900;28;19961;-69
2021/09/09 08:47:11;;;;;;;;;;;20.70;51.50;;;;;;5070187;28;19928;-69
2021/09/09 08:49:38;;;;;;;;;;;20.60;49.70;;;;;;5070664;28;19938;-70
2021/09/09 08:52:05;;;;;;;;;;;20.50;50.20;;;;;;5071208;28;19908;-69
2021/09/09 08:54:32;;;;;;;;;;;20.50;50.20;;;;;;5070351;28;19924;-69
2021/09/09 08:56:59;;;;;;;;;;;20.40;49.10;;;;;;5070962;28;20691;-69
2021/09/09 08:59:26;;;;;;;;;;;20.40;50.70;;;;;;5070554;28;20363;-68
2021/09/09 09:01:59;;;;;;;;;;;20.40;49.50;;;;;;5070362;28;19920;-68
2021/09/09 09:04:27;;;;;;;;;;;20.40;49.00;;;;;;5070006;28;20422;-69
2021/09/09 09:06:53;;;;;;;;;;;20.40;50.40;;;;;;5072355;28;20003;-68
2021/09/09 09:09:23;;;;;;;;;;;20.40;48.70;;;;;;5072127;28;19908;-69
2021/09/09 09:11:52;;;;;;;;;;;20.40;49.80;;;;;;5071928;28;19920;-69
2021/09/09 09:14:26;;;;;;;;;;;20.30;47.50;;;;;;5071947;28;19921;-68
2021/09/09 09:16:53;;;;;;;;;;;20.30;48.40;;;;;;5071713;28;19909;-68
2021/09/09 09:19:22;;;;;;;;;;;20.20;46.60;;;;;;5072076;28;19909;-69
2021/09/09 09:21:52;;;;;;;;;;;20.20;46.20;;;;;;5072243;28;19934;-68
2021/09/09 09:24:19;;;;;;;;;;;20.20;50.10;;;;;;5074679;28;19913;-68
2021/09/09 09:27:04;;;;;;;;;;;20.10;47.00;;;;;;5076150;28;20367;-69
2021/09/09 09:29:31;;;;;;;;;;;20.20;46.70;;;;;;5076029;28;19913;-68
2021/09/09 09:32:08;;;;;;;;;;;20.20;46.50;;;;;;5108332;28;20394;-68
2021/09/09 09:34:35;;;;;;;;;;;20.10;46.70;;;;;;5076085;28;19942;-68
2021/09/09 09:37:01;;;;;;;;;;;20.00;46.70;;;;;;5076142;28;20245;-68
2021/09/09 09:39:28;;;;;;;;;;;20.10;46.40;;;;;;5075955;28;19915;-69
2021/09/09 09:41:55;;;;;;;;;;;20.20;45.30;;;;;;5075905;28;19946;-68
2021/09/09 09:44:31;;;;;;;;;;;20.20;47.40;;;;;;5075946;28;20374;-68
2021/09/09 09:47:26;;;;;;;;;;;20.20;44.80;;;;;;5075165;28;19920;-68
2021/09/09 09:49:58;;;;;;;;;;;20.30;45.90;;;;;;5070744;28;19917;-68
2021/09/09 09:52:29;;;;;;;;;;;20.40;44.20;;;;;;5075811;28;20197;-68
2021/09/09 09:54:59;;;;;;;;;;;20.40;45.90;;;;;;5075465;28;20276;-68
2021/09/09 09:57:27;;;;;;;;;;;20.30;45.40;;;;;;5075720;28;19959;-68
2021/09/09 09:59:54;;;;;;;;;;;20.30;45.90;;;;;;5074756;28;19912;-68
2021/09/09 10:02:20;;;;;;;;;;;20.50;44.90;;;;;;5075703;28;19980;-67
2021/09/09 10:04:48;;;;;;;;;;;20.50;44.80;;;;;;5075569;28;19955;-67
2021/09/09 10:07:15;;;;;;;;;;;20.50;44.20;;;;;;5075420;28;19915;-68
2021/09/09 10:09:42;;;;;;;;;;;20.40;44.20;;;;;;5074950;28;19908;-68
2021/09/09 10:12:10;;;;;;;;;;;20.30;45.60;;;;;;5075303;28;19908;-68
2021/09/09 10:14:49;;;;;;;;;;;20.30;46.90;;;;;;5074750;28;19923;-68
2021/09/09 10:17:20;;;;;;;;;;;20.20;47.60;;;;;;5075076;28;19909;-68
2021/09/09 10:19:49;;;;;;;;;;;20.20;47.30;;;;;;5075101;28;19959;-68
2021/09/09 10:22:16;;;;;;;;;;;20.20;47.40;;;;;;5075145;28;19908;-68
2021/09/09 10:24:44;;;;;;;;;;;20.10;47.80;;;;;;5074993;28;19913;-68
2021/09/09 10:27:19;;;;;;;;;;;20.00;48.20;;;;;;5074775;28;19920;-68
2021/09/09 10:29:46;;;;;;;;;;;20.00;47.10;;;;;;5074464;28;20389;-68
2021/09/09 10:32:30;;;;;;;;;;;20.00;48.40;;;;;;5075063;28;20367;-68
2021/09/09 10:35:22;;;;;;;;;;;19.90;47.50;;;;;;5073572;28;19923;-68
2021/09/09 10:37:50;;;;;;;;;;;20.00;48.60;;;;;;5071458;28;19909;-69
2021/09/09 10:40:32;;;;;;;;;;;19.90;47.90;;;;;;5074810;28;19909;-69
2021/09/09 10:42:59;;;;;;;;;;;19.90;49.60;;;;;;5074823;28;19908;-69
2021/09/09 10:45:38;;;;;;;;;;;19.90;50.20;;;;;;5074191;28;20287;-69
2021/09/09 10:48:08;;;;;;;;;;;19.80;49.00;;;;;;5074669;28;19924;-68
2021/09/09 10:50:36;;;;;;;;;;;19.90;48.80;;;;;;5074644;28;19908;-68
2021/09/09 10:53:04;;;;;;;;;;;20.00;49.20;;;;;;5074590;28;19915;-69
2021/09/09 10:55:31;;;;;;;;;;;20.00;49.70;;;;;;5074263;28;20304;-69
2021/09/09 10:58:13;;;;;;;;;;;19.90;49.20;;;;;;5074594;28;19931;-69
2021/09/09 11:00:52;;;;;;;;;;;19.80;49.10;;;;;;5074272;28;20347;-69
2021/09/09 11:03:37;;;;;;;;;;;19.80;49.50;;;;;;5074532;28;19912;-69
2021/09/09 11:06:07;;;;;;;;;;;19.80;50.20;;;;;;5074399;28;20390;-69
2021/09/09 11:08:33;;;;;;;;;;;19.80;51.20;;;;;;5074268;28;19917;-69
2021/09/09 11:11:01;;;;;;;;;;;19.90;50.10;;;;;;5074235;28;19909;-69
2021/09/09 11:13:28;;;;;;;;;;;19.80;50.00;;;;;;5074172;28;19924;-69
2021/09/09 11:15:55;;;;;;;;;;;19.80;51.30;;;;;;5073454;28;19930;-68
2021/09/09 11:18:26;;;;;;;;;;;19.70;52.10;;;;;;5074293;28;19908;-68
2021/09/09 11:21:02;;;;;;;;;;;19.70;51.10;;;;;;5074603;28;19912;-68
2021/09/09 11:23:29;;;;;;;;;;;19.60;51.20;;;;;;5073972;28;19908;-68
2021/09/09 11:25:56;;;;;;;;;;;19.50;51.20;;;;;;5074110;28;19919;-68
2021/09/09 11:28:22;;;;;;;;;;;19.40;51.40;;;;;;5074111;28;20395;-68
2021/09/09 11:31:27;;;;;;;;;;;19.30;51.70;;;;;;5073947;28;20301;-69
2021/09/09 11:33:54;;;;;;;;;;;19.20;52.50;;;;;;5051295;28;19920;-68
2021/09/09 11:36:22;;;;;;;;;;;19.00;53.10;;;;;;5051866;28;19909;-68
2021/09/09 11:38:50;;;;;;;;;;;18.90;53.50;;;;;;5062077;28;19908;-68
2021/09/09 11:41:19;;;;;;;;;;;18.80;54.20;;;;;;5073704;28;19978;-69
2021/09/09 11:43:50;;;;;;;;;;;18.80;54.20;;;;;;5073452;28;19909;-68
2021/09/09 11:46:24;;;;;;;;;;;18.70;54.80;;;;;;5073053;28;20367;-68
2021/09/09 11:48:54;;;;;;;;;;;18.60;55.00;;;;;;5073848;28;19954;-68
2021/09/09 11:51:30;;;;;;;;;;;18.60;54.80;;;;;;5073582;28;19999;-68
2021/09/09 11:53:57;;;;;;;;;;;18.50;54.40;;;;;;5073358;28;19913;-68
2021/09/09 11:56:23;;;;;;;;;;;18.50;56.20;;;;;;5073420;28;19918;-68
2021/09/09 11:58:50;;;;;;;;;;;18.40;55.70;;;;;;5073139;28;19955;-69
2021/09/09 12:01:17;;;;;;;;;;;18.40;56.10;;;;;;5073306;28;20209;-69
2021/09/09 12:03:47;;;;;;;;;;;18.30;56.40;;;;;;5072434;28;19952;-68
2021/09/09 12:06:18;;;;;;;;;;;18.30;58.00;;;;;;5073268;28;19908;-69
2021/09/09 12:08:45;;;;;;;;;;;18.20;58.30;;;;;;5073022;28;19929;-69
2021/09/09 12:11:12;;;;;;;;;;;18.20;56.50;;;;;;5073208;28;20370;-69
2021/09/09 12:13:40;;;;;;;;;;;18.10;56.70;;;;;;5072730;28;19924;-69
2021/09/09 12:16:15;;;;;;;;;;;18.00;56.80;;;;;;5073038;28;19909;-68
2021/09/09 12:18:42;;;;;;;;;;;18.00;57.10;;;;;;5072515;28;19908;-68
2021/09/09 12:21:10;;;;;;;;;;;18.00;58.20;;;;;;5072963;28;19912;-68
2021/09/09 12:23:37;;;;;;;;;;;17.90;59.80;;;;;;5072481;28;19915;-68
2021/09/09 12:26:15;;;;;;;;;;;18.00;59.30;;;;;;5072825;28;20331;-68
2021/09/09 12:28:42;;;;;;;;;;;17.90;58.50;;;;;;5072510;28;19915;-68
2021/09/09 12:31:08;;;;;;;;;;;18.00;59.30;;;;;;5072795;28;20359;-69
2021/09/09 12:33:37;;;;;;;;;;;18.00;58.80;;;;;;5072429;28;19912;-68
2021/09/09 12:36:09;;;;;;;;;;;18.00;59.60;;;;;;5072601;28;19955;-68
2021/09/09 12:38:42;;;;;;;;;;;18.00;59.10;;;;;;5072486;28;19908;-68
2021/09/09 12:41:27;;;;;;;;;;;17.90;59.10;;;;;;5072743;28;19962;-68
2021/09/09 12:44:00;;;;;;;;;;;17.90;58.70;;;;;;5072484;28;20261;-69
2021/09/09 12:46:27;;;;;;;;;;;17.90;58.40;;;;;;5072478;28;19939;-68
2021/09/09 12:49:05;;;;;;;;;;;17.80;58.40;;;;;;5072502;28;19908;-68
2021/09/09 12:51:32;;;;;;;;;;;17.70;58.10;;;;;;5072608;28;19916;-69
2021/09/09 12:53:59;;;;;;;;;;;17.50;59.70;;;;;;5072418;28;19917;-69
2021/09/09 12:56:25;;;;;;;;;;;17.40;60.50;;;;;;5072433;28;19909;-68
2021/09/09 12:58:52;;;;;;;;;;;17.40;61.10;;;;;;5071801;28;19999;-69
2021/09/09 13:01:19;;;;;;;;;;;17.40;59.90;;;;;;5072395;28;19908;-69
2021/09/09 13:03:45;;;;;;;;;;;17.40;60.20;;;;;;5072320;28;19916;-69
2021/09/09 13:06:12;;;;;;;;;;;17.40;60.00;;;;;;5072370;28;19909;-69
2021/09/09 13:08:39;;;;;;;;;;;17.40;58.90;;;;;;5072236;28;19908;-69
2021/09/09 13:11:06;;;;;;;;;;;17.40;58.80;;;;;;5072584;28;19908;-69
2021/09/09 13:13:33;;;;;;;;;;;17.40;59.30;;;;;;5072092;28;19920;-69
2021/09/09 13:16:00;;;;;;;;;;;17.40;59.40;;;;;;5072428;28;19934;-69
2021/09/09 13:18:27;;;;;;;;;;;17.50;59.30;;;;;;5072264;28;20263;-69
2021/09/09 13:20:54;;;;;;;;;;;17.40;58.70;;;;;;5072302;28;19912;-69
2021/09/09 13:23:21;;;;;;;;;;;17.50;57.80;;;;;;5072195;28;19908;-69
2021/09/09 13:25:48;;;;;;;;;;;17.50;59.50;;;;;;5071986;28;19909;-69
2021/09/09 13:28:14;;;;;;;;;;;17.50;59.30;;;;;;5072288;28;20027;-69
2021/09/09 13:30:41;;;;;;;;;;;17.50;61.00;;;;;;5072502;28;19909;-68
2021/09/09 13:33:09;;;;;;;;;;;17.50;60.30;;;;;;5072404;28;19908;-68
2021/09/09 13:35:36;;;;;;;;;;;17.50;61.30;;;;;;5070941;28;19991;-69
2021/09/09 13:38:04;;;;;;;;;;;17.50;59.00;;;;;;5071954;28;19912;-69
2021/09/09 13:40:31;;;;;;;;;;;17.50;59.00;;;;;;5072092;28;19916;-69
2021/09/09 13:42:58;;;;;;;;;;;17.50;60.30;;;;;;5072117;28;19915;-68
2021/09/09 13:45:25;;;;;;;;;;;17.40;60.00;;;;;;5072067;28;20337;-68
2021/09/09 13:47:52;;;;;;;;;;;17.40;61.40;;;;;;5071674;28;19927;-69
2021/09/09 13:50:18;;;;;;;;;;;17.40;60.60;;;;;;5072019;28;19908;-68
2021/09/09 13:52:46;;;;;;;;;;;17.40;60.60;;;;;;5072016;28;19951;-69
2021/09/09 13:55:13;;;;;;;;;;;17.40;60.30;;;;;;5104229;28;20371;-69
2021/09/09 13:57:39;;;;;;;;;;;17.40;59.60;;;;;;5071755;28;19930;-69
2021/09/09 14:00:08;;;;;;;;;;;17.40;61.60;;;;;;5072059;28;19908;-69
2021/09/09 14:02:34;;;;;;;;;;;17.40;60.20;;;;;;5071951;28;19915;-69
2021/09/09 14:05:01;;;;;;;;;;;17.40;62.40;;;;;;5071833;28;20106;-69
2021/09/09 14:07:28;;;;;;;;;;;17.40;61.10;;;;;;5071662;28;20436;-69
2021/09/09 14:09:55;;;;;;;;;;;17.40;61.30;;;;;;5073512;28;19908;-69
2021/09/09 14:12:22;;;;;;;;;;;17.40;62.00;;;;;;5075523;28;19909;-69
2021/09/09 14:14:48;;;;;;;;;;;17.40;61.00;;;;;;5075475;28;19920;-69
2021/09/09 14:17:16;;;;;;;;;;;17.30;60.80;;;;;;5075543;28;19915;-69
2021/09/09 14:19:43;;;;;;;;;;;17.30;60.50;;;;;;5075260;28;19912;-69